sensor_id;sensor_type;location;lat;lon;timestamp;P1;durP1;ratioP1;P2;durP2;ratioP2
76380;SDS011;65202;52.520;10.528;2022-12-24T00:01:03;10.63;;;6.55;;
76380;SDS011;65202;52.520;10.528;2022-12-24T00:03:32;11.63;;;6.20;;
76380;SDS011;65202;52.520;10.528;2022-12-24T00:06:07;10.13;;;6.43;;
76380;SDS011;65202;52.520;10.528;2022-12-24T00:08:41;11.45;;;6.80;;
76380;SDS011;65202;52.520;10.528;2022-12-24T00:11:09;9.30;;;5.93;;
76380;SDS011;65202;52.520;10.528;2022-12-24T00:13:36;9.95;;;6.15;;
76380;SDS011;65202;52.520;10.528;2022-12-24T00:16:04;10.85;;;6.10;;
76380;SDS011;65202;52.520;10.528;2022-12-24T00:18:31;10.52;;;6.50;;
76380;SDS011;65202;52.520;10.528;2022-12-24T00:20:58;10.23;;;6.18;;
76380;SDS011;65202;52.520;10.528;2022-12-24T00:23:27;9.38;;;6.15;;
76380;SDS011;65202;52.520;10.528;2022-12-24T00:25:54;9.68;;;6.38;;
76380;SDS011;65202;52.520;10.528;2022-12-24T00:28:21;11.30;;;6.63;;
76380;SDS011;65202;52.520;10.528;2022-12-24T00:30:49;12.98;;;6.65;;
76380;SDS011;65202;52.520;10.528;2022-12-24T00:33:16;10.90;;;6.43;;
76380;SDS011;65202;52.520;10.528;2022-12-24T00:35:50;11.77;;;6.95;;
76380;SDS011;65202;52.520;10.528;2022-12-24T00:38:19;12.95;;;6.68;;
76380;SDS011;65202;52.520;10.528;2022-12-24T00:40:46;11.10;;;6.50;;
76380;SDS011;65202;52.520;10.528;2022-12-24T00:43:13;12.50;;;6.57;;
76380;SDS011;65202;52.520;10.528;2022-12-24T00:45:41;10.82;;;6.80;;
76380;SDS011;65202;52.520;10.528;2022-12-24T00:48:08;12.50;;;7.05;;
76380;SDS011;65202;52.520;10.528;2022-12-24T00:50:35;10.05;;;6.20;;
76380;SDS011;65202;52.520;10.528;2022-12-24T00:53:03;12.10;;;7.22;;
76380;SDS011;65202;52.520;10.528;2022-12-24T00:55:30;14.13;;;7.90;;
76380;SDS011;65202;52.520;10.528;2022-12-24T00:57:57;14.50;;;8.10;;
76380;SDS011;65202;52.520;10.528;2022-12-24T01:00:24;15.00;;;7.63;;
76380;SDS011;65202;52.520;10.528;2022-12-24T01:02:52;17.60;;;8.30;;
76380;SDS011;65202;52.520;10.528;2022-12-24T01:05:19;14.82;;;7.57;;
76380;SDS011;65202;52.520;10.528;2022-12-24T01:07:48;13.88;;;7.80;;
76380;SDS011;65202;52.520;10.528;2022-12-24T01:10:17;13.25;;;7.97;;
76380;SDS011;65202;52.520;10.528;2022-12-24T01:12:46;14.35;;;8.50;;
76380;SDS011;65202;52.520;10.528;2022-12-24T01:15:14;16.05;;;8.98;;
76380;SDS011;65202;52.520;10.528;2022-12-24T01:17:43;16.38;;;9.07;;
76380;SDS011;65202;52.520;10.528;2022-12-24T01:20:12;15.77;;;8.40;;
76380;SDS011;65202;52.520;10.528;2022-12-24T01:22:42;15.25;;;8.30;;
76380;SDS011;65202;52.520;10.528;2022-12-24T01:25:10;16.65;;;9.02;;
76380;SDS011;65202;52.520;10.528;2022-12-24T01:27:37;15.45;;;8.90;;
76380;SDS011;65202;52.520;10.528;2022-12-24T01:30:05;17.45;;;9.20;;
76380;SDS011;65202;52.520;10.528;2022-12-24T01:32:34;17.90;;;8.75;;
76380;SDS011;65202;52.520;10.528;2022-12-24T01:35:02;15.63;;;8.93;;
76380;SDS011;65202;52.520;10.528;2022-12-24T01:37:30;17.05;;;8.18;;
76380;SDS011;65202;52.520;10.528;2022-12-24T01:39:57;14.75;;;8.18;;
76380;SDS011;65202;52.520;10.528;2022-12-24T01:42:44;14.73;;;8.20;;
76380;SDS011;65202;52.520;10.528;2022-12-24T01:51:14;16.25;;;8.25;;
76380;SDS011;65202;52.520;10.528;2022-12-24T01:54:12;15.23;;;8.57;;
76380;SDS011;65202;52.520;10.528;2022-12-24T01:56:48;19.15;;;9.63;;
76380;SDS011;65202;52.520;10.528;2022-12-24T01:59:31;14.50;;;8.50;;
76380;SDS011;65202;52.520;10.528;2022-12-24T02:01:59;18.45;;;8.93;;
76380;SDS011;65202;52.520;10.528;2022-12-24T02:04:31;19.00;;;9.52;;
76380;SDS011;65202;52.520;10.528;2022-12-24T02:07:05;16.70;;;8.88;;
76380;SDS011;65202;52.520;10.528;2022-12-24T02:09:33;17.70;;;8.93;;
76380;SDS011;65202;52.520;10.528;2022-12-24T02:12:03;15.73;;;8.63;;
76380;SDS011;65202;52.520;10.528;2022-12-24T02:14:31;17.52;;;8.88;;
76380;SDS011;65202;52.520;10.528;2022-12-24T02:20:02;17.67;;;8.88;;
76380;SDS011;65202;52.520;10.528;2022-12-24T02:29:10;15.88;;;8.45;;
76380;SDS011;65202;52.520;10.528;2022-12-24T02:32:02;17.35;;;9.02;;
76380;SDS011;65202;52.520;10.528;2022-12-24T02:34:44;15.63;;;7.88;;
76380;SDS011;65202;52.520;10.528;2022-12-24T02:37:25;18.00;;;8.27;;
76380;SDS011;65202;52.520;10.528;2022-12-24T02:40:13;13.60;;;7.40;;
76380;SDS011;65202;52.520;10.528;2022-12-24T02:42:47;15.52;;;8.23;;
76380;SDS011;65202;52.520;10.528;2022-12-24T02:45:25;12.35;;;7.65;;
76380;SDS011;65202;52.520;10.528;2022-12-24T02:47:57;14.32;;;7.88;;
76380;SDS011;65202;52.520;10.528;2022-12-24T02:50:26;13.98;;;8.20;;
76380;SDS011;65202;52.520;10.528;2022-12-24T02:52:54;14.85;;;8.57;;
76380;SDS011;65202;52.520;10.528;2022-12-24T02:55:23;16.67;;;9.05;;
76380;SDS011;65202;52.520;10.528;2022-12-24T02:58:23;16.33;;;8.50;;
76380;SDS011;65202;52.520;10.528;2022-12-24T03:07:42;15.77;;;9.00;;
76380;SDS011;65202;52.520;10.528;2022-12-24T03:13:13;16.60;;;8.20;;
76380;SDS011;65202;52.520;10.528;2022-12-24T03:15:43;17.45;;;8.88;;
76380;SDS011;65202;52.520;10.528;2022-12-24T03:18:15;16.30;;;9.07;;
76380;SDS011;65202;52.520;10.528;2022-12-24T03:20:52;13.90;;;7.85;;
76380;SDS011;65202;52.520;10.528;2022-12-24T03:23:27;14.73;;;8.65;;
76380;SDS011;65202;52.520;10.528;2022-12-24T03:25:55;12.07;;;7.38;;
76380;SDS011;65202;52.520;10.528;2022-12-24T03:28:27;12.75;;;7.60;;
76380;SDS011;65202;52.520;10.528;2022-12-24T03:30:55;12.07;;;7.15;;
76380;SDS011;65202;52.520;10.528;2022-12-24T03:33:30;10.60;;;6.93;;
76380;SDS011;65202;52.520;10.528;2022-12-24T03:35:57;11.65;;;7.60;;
76380;SDS011;65202;52.520;10.528;2022-12-24T03:38:24;10.57;;;6.38;;
76380;SDS011;65202;52.520;10.528;2022-12-24T03:40:52;10.85;;;6.95;;
76380;SDS011;65202;52.520;10.528;2022-12-24T03:43:19;10.90;;;6.75;;
76380;SDS011;65202;52.520;10.528;2022-12-24T03:45:46;10.20;;;6.57;;
76380;SDS011;65202;52.520;10.528;2022-12-24T03:48:14;10.57;;;6.70;;
76380;SDS011;65202;52.520;10.528;2022-12-24T03:50:41;11.13;;;6.57;;
76380;SDS011;65202;52.520;10.528;2022-12-24T03:53:08;11.65;;;6.90;;
76380;SDS011;65202;52.520;10.528;2022-12-24T03:55:36;10.80;;;6.70;;
76380;SDS011;65202;52.520;10.528;2022-12-24T03:58:05;10.45;;;6.57;;
76380;SDS011;65202;52.520;10.528;2022-12-24T04:00:32;10.02;;;6.63;;
76380;SDS011;65202;52.520;10.528;2022-12-24T04:03:00;10.27;;;6.72;;
76380;SDS011;65202;52.520;10.528;2022-12-24T04:05:27;9.20;;;6.18;;
76380;SDS011;65202;52.520;10.528;2022-12-24T04:07:54;10.05;;;5.78;;
76380;SDS011;65202;52.520;10.528;2022-12-24T04:10:21;9.05;;;5.80;;
76380;SDS011;65202;52.520;10.528;2022-12-24T04:12:48;8.80;;;6.03;;
76380;SDS011;65202;52.520;10.528;2022-12-24T04:15:16;8.30;;;5.70;;
76380;SDS011;65202;52.520;10.528;2022-12-24T04:17:43;8.80;;;6.05;;
76380;SDS011;65202;52.520;10.528;2022-12-24T04:20:10;10.55;;;5.20;;
76380;SDS011;65202;52.520;10.528;2022-12-24T04:22:38;7.80;;;5.43;;
76380;SDS011;65202;52.520;10.528;2022-12-24T04:25:05;7.10;;;4.95;;
76380;SDS011;65202;52.520;10.528;2022-12-24T04:27:33;10.43;;;5.65;;
76380;SDS011;65202;52.520;10.528;2022-12-24T04:30:00;9.38;;;6.07;;
76380;SDS011;65202;52.520;10.528;2022-12-24T04:32:27;9.93;;;5.88;;
76380;SDS011;65202;52.520;10.528;2022-12-24T04:34:55;8.48;;;5.72;;
76380;SDS011;65202;52.520;10.528;2022-12-24T04:37:22;11.18;;;5.68;;
76380;SDS011;65202;52.520;10.528;2022-12-24T04:39:49;8.45;;;5.53;;
76380;SDS011;65202;52.520;10.528;2022-12-24T04:42:16;10.88;;;5.57;;
76380;SDS011;65202;52.520;10.528;2022-12-24T04:44:43;8.20;;;5.20;;
76380;SDS011;65202;52.520;10.528;2022-12-24T04:47:11;10.43;;;5.38;;
76380;SDS011;65202;52.520;10.528;2022-12-24T04:49:38;8.85;;;5.70;;
76380;SDS011;65202;52.520;10.528;2022-12-24T04:52:05;9.65;;;5.15;;
76380;SDS011;65202;52.520;10.528;2022-12-24T04:54:32;7.30;;;4.55;;
76380;SDS011;65202;52.520;10.528;2022-12-24T04:56:59;6.15;;;4.28;;
76380;SDS011;65202;52.520;10.528;2022-12-24T04:59:26;6.47;;;4.45;;
76380;SDS011;65202;52.520;10.528;2022-12-24T05:01:54;5.10;;;3.50;;
76380;SDS011;65202;52.520;10.528;2022-12-24T05:04:21;5.20;;;3.45;;
76380;SDS011;65202;52.520;10.528;2022-12-24T05:06:48;5.32;;;3.28;;
76380;SDS011;65202;52.520;10.528;2022-12-24T05:09:15;4.35;;;3.03;;
76380;SDS011;65202;52.520;10.528;2022-12-24T05:11:42;5.60;;;3.05;;
76380;SDS011;65202;52.520;10.528;2022-12-24T05:14:10;5.20;;;3.05;;
76380;SDS011;65202;52.520;10.528;2022-12-24T05:16:37;3.90;;;2.95;;
76380;SDS011;65202;52.520;10.528;2022-12-24T05:19:04;5.53;;;3.38;;
76380;SDS011;65202;52.520;10.528;2022-12-24T05:21:31;5.65;;;3.45;;
76380;SDS011;65202;52.520;10.528;2022-12-24T05:23:59;8.02;;;4.47;;
76380;SDS011;65202;52.520;10.528;2022-12-24T05:26:47;7.05;;;4.85;;
76380;SDS011;65202;52.520;10.528;2022-12-24T05:29:20;6.55;;;4.72;;
76380;SDS011;65202;52.520;10.528;2022-12-24T05:31:47;7.70;;;5.20;;
76380;SDS011;65202;52.520;10.528;2022-12-24T05:34:15;8.07;;;5.28;;
76380;SDS011;65202;52.520;10.528;2022-12-24T05:36:43;9.27;;;5.95;;
76380;SDS011;65202;52.520;10.528;2022-12-24T05:39:14;9.85;;;5.22;;
76380;SDS011;65202;52.520;10.528;2022-12-24T05:41:44;11.23;;;5.93;;
76380;SDS011;65202;52.520;10.528;2022-12-24T05:44:12;9.07;;;5.43;;
76380;SDS011;65202;52.520;10.528;2022-12-24T05:46:40;10.90;;;5.63;;
76380;SDS011;65202;52.520;10.528;2022-12-24T05:49:08;9.52;;;5.80;;
76380;SDS011;65202;52.520;10.528;2022-12-24T05:51:35;10.88;;;5.78;;
76380;SDS011;65202;52.520;10.528;2022-12-24T05:54:03;10.48;;;6.18;;
76380;SDS011;65202;52.520;10.528;2022-12-24T05:56:31;9.25;;;5.50;;
76380;SDS011;65202;52.520;10.528;2022-12-24T05:58:58;8.50;;;5.10;;
76380;SDS011;65202;52.520;10.528;2022-12-24T06:01:25;6.95;;;5.40;;
76380;SDS011;65202;52.520;10.528;2022-12-24T06:03:55;13.05;;;6.35;;
76380;SDS011;65202;52.520;10.528;2022-12-24T06:06:24;12.98;;;6.28;;
76380;SDS011;65202;52.520;10.528;2022-12-24T06:08:54;10.85;;;5.97;;
76380;SDS011;65202;52.520;10.528;2022-12-24T06:11:22;8.85;;;4.85;;
76380;SDS011;65202;52.520;10.528;2022-12-24T06:13:52;13.05;;;5.13;;
76380;SDS011;65202;52.520;10.528;2022-12-24T06:16:20;8.65;;;4.82;;
76380;SDS011;65202;52.520;10.528;2022-12-24T06:18:49;11.68;;;4.50;;
76380;SDS011;65202;52.520;10.528;2022-12-24T06:21:17;11.07;;;4.43;;
76380;SDS011;65202;52.520;10.528;2022-12-24T06:23:45;14.82;;;4.50;;
76380;SDS011;65202;52.520;10.528;2022-12-24T06:26:14;13.27;;;4.20;;
76380;SDS011;65202;52.520;10.528;2022-12-24T06:28:47;15.18;;;4.15;;
76380;SDS011;65202;52.520;10.528;2022-12-24T06:31:17;19.48;;;4.32;;
76380;SDS011;65202;52.520;10.528;2022-12-24T06:33:48;25.38;;;4.55;;
76380;SDS011;65202;52.520;10.528;2022-12-24T06:36:18;21.85;;;4.57;;
76380;SDS011;65202;52.520;10.528;2022-12-24T06:38:49;31.40;;;5.40;;
76380;SDS011;65202;52.520;10.528;2022-12-24T06:41:18;24.50;;;5.30;;
76380;SDS011;65202;52.520;10.528;2022-12-24T06:43:47;38.17;;;6.30;;
76380;SDS011;65202;52.520;10.528;2022-12-24T06:46:19;39.50;;;6.53;;
76380;SDS011;65202;52.520;10.528;2022-12-24T06:48:47;34.92;;;4.90;;
76380;SDS011;65202;52.520;10.528;2022-12-24T06:51:15;33.40;;;5.43;;
76380;SDS011;65202;52.520;10.528;2022-12-24T06:53:46;30.20;;;5.30;;
76380;SDS011;65202;52.520;10.528;2022-12-24T06:56:16;38.30;;;6.78;;
76380;SDS011;65202;52.520;10.528;2022-12-24T06:58:46;42.33;;;6.05;;
76380;SDS011;65202;52.520;10.528;2022-12-24T07:01:14;30.58;;;5.75;;
76380;SDS011;65202;52.520;10.528;2022-12-24T07:03:45;32.28;;;6.97;;
76380;SDS011;65202;52.520;10.528;2022-12-24T07:06:20;33.47;;;5.72;;
76380;SDS011;65202;52.520;10.528;2022-12-24T07:08:52;32.80;;;5.97;;
76380;SDS011;65202;52.520;10.528;2022-12-24T07:11:20;30.02;;;6.03;;
76380;SDS011;65202;52.520;10.528;2022-12-24T07:13:49;45.05;;;8.00;;
76380;SDS011;65202;52.520;10.528;2022-12-24T07:16:17;39.15;;;6.65;;
76380;SDS011;65202;52.520;10.528;2022-12-24T07:18:45;43.05;;;7.10;;
76380;SDS011;65202;52.520;10.528;2022-12-24T07:21:12;41.50;;;7.35;;
76380;SDS011;65202;52.520;10.528;2022-12-24T07:23:39;40.65;;;7.15;;
76380;SDS011;65202;52.520;10.528;2022-12-24T07:26:07;42.95;;;7.45;;
76380;SDS011;65202;52.520;10.528;2022-12-24T07:28:34;38.90;;;6.70;;
76380;SDS011;65202;52.520;10.528;2022-12-24T07:31:01;37.13;;;6.72;;
76380;SDS011;65202;52.520;10.528;2022-12-24T07:33:29;36.22;;;7.15;;
76380;SDS011;65202;52.520;10.528;2022-12-24T07:36:06;39.08;;;8.45;;
76380;SDS011;65202;52.520;10.528;2022-12-24T07:38:40;38.38;;;8.88;;
76380;SDS011;65202;52.520;10.528;2022-12-24T07:41:07;41.85;;;8.00;;
76380;SDS011;65202;52.520;10.528;2022-12-24T07:43:34;42.75;;;8.77;;
76380;SDS011;65202;52.520;10.528;2022-12-24T07:46:02;39.95;;;9.25;;
76380;SDS011;65202;52.520;10.528;2022-12-24T07:48:29;42.20;;;8.50;;
76380;SDS011;65202;52.520;10.528;2022-12-24T07:50:58;35.65;;;8.52;;
76380;SDS011;65202;52.520;10.528;2022-12-24T07:53:27;39.72;;;8.32;;
76380;SDS011;65202;52.520;10.528;2022-12-24T07:55:55;35.40;;;7.40;;
76380;SDS011;65202;52.520;10.528;2022-12-24T07:58:23;42.20;;;8.50;;
76380;SDS011;65202;52.520;10.528;2022-12-24T08:00:54;50.90;;;8.52;;
76380;SDS011;65202;52.520;10.528;2022-12-24T08:03:24;39.63;;;8.40;;
76380;SDS011;65202;52.520;10.528;2022-12-24T08:05:52;41.92;;;8.23;;
76380;SDS011;65202;52.520;10.528;2022-12-24T08:08:19;52.10;;;8.23;;
76380;SDS011;65202;52.520;10.528;2022-12-24T08:10:47;48.67;;;7.05;;
76380;SDS011;65202;52.520;10.528;2022-12-24T08:13:14;39.78;;;6.65;;
76380;SDS011;65202;52.520;10.528;2022-12-24T08:15:42;43.17;;;6.88;;
76380;SDS011;65202;52.520;10.528;2022-12-24T08:18:13;60.60;;;11.55;;
76380;SDS011;65202;52.520;10.528;2022-12-24T08:20:46;52.22;;;11.00;;
76380;SDS011;65202;52.520;10.528;2022-12-24T08:23:14;46.35;;;10.30;;
76380;SDS011;65202;52.520;10.528;2022-12-24T08:25:42;46.47;;;7.07;;
76380;SDS011;65202;52.520;10.528;2022-12-24T08:28:12;46.35;;;7.32;;
76380;SDS011;65202;52.520;10.528;2022-12-24T08:30:42;46.47;;;6.78;;
76380;SDS011;65202;52.520;10.528;2022-12-24T08:33:10;38.88;;;5.95;;
76380;SDS011;65202;52.520;10.528;2022-12-24T08:35:38;43.38;;;6.15;;
76380;SDS011;65202;52.520;10.528;2022-12-24T08:38:05;41.15;;;6.55;;
76380;SDS011;65202;52.520;10.528;2022-12-24T08:40:32;48.13;;;7.20;;
76380;SDS011;65202;52.520;10.528;2022-12-24T08:43:00;36.75;;;6.70;;
76380;SDS011;65202;52.520;10.528;2022-12-24T08:45:28;43.50;;;6.63;;
76380;SDS011;65202;52.520;10.528;2022-12-24T08:48:03;41.90;;;6.28;;
76380;SDS011;65202;52.520;10.528;2022-12-24T08:50:32;41.30;;;6.15;;
76380;SDS011;65202;52.520;10.528;2022-12-24T08:52:59;35.45;;;5.55;;
76380;SDS011;65202;52.520;10.528;2022-12-24T08:55:26;41.17;;;6.35;;
76380;SDS011;65202;52.520;10.528;2022-12-24T08:57:53;47.50;;;7.30;;
76380;SDS011;65202;52.520;10.528;2022-12-24T09:00:21;43.97;;;8.90;;
76380;SDS011;65202;52.520;10.528;2022-12-24T09:02:48;41.45;;;7.28;;
76380;SDS011;65202;52.520;10.528;2022-12-24T09:05:15;42.33;;;10.27;;
76380;SDS011;65202;52.520;10.528;2022-12-24T09:07:43;39.72;;;7.45;;
76380;SDS011;65202;52.520;10.528;2022-12-24T09:10:10;41.30;;;8.07;;
76380;SDS011;65202;52.520;10.528;2022-12-24T09:12:38;44.75;;;6.15;;
76380;SDS011;65202;52.520;10.528;2022-12-24T09:15:05;38.78;;;5.55;;
76380;SDS011;65202;52.520;10.528;2022-12-24T09:17:34;41.55;;;6.15;;
76380;SDS011;65202;52.520;10.528;2022-12-24T09:20:03;40.97;;;6.20;;
76380;SDS011;65202;52.520;10.528;2022-12-24T09:22:33;33.47;;;5.53;;
76380;SDS011;65202;52.520;10.528;2022-12-24T09:25:03;41.28;;;6.10;;
76380;SDS011;65202;52.520;10.528;2022-12-24T09:27:32;37.35;;;5.75;;
76380;SDS011;65202;52.520;10.528;2022-12-24T09:29:59;35.35;;;5.35;;
76380;SDS011;65202;52.520;10.528;2022-12-24T09:32:26;41.63;;;6.43;;
76380;SDS011;65202;52.520;10.528;2022-12-24T09:34:54;35.28;;;4.80;;
76380;SDS011;65202;52.520;10.528;2022-12-24T09:37:21;41.53;;;7.93;;
76380;SDS011;65202;52.520;10.528;2022-12-24T09:39:48;36.35;;;6.88;;
76380;SDS011;65202;52.520;10.528;2022-12-24T09:45:17;31.23;;;4.85;;
76380;SDS011;65202;52.520;10.528;2022-12-24T09:47:56;36.90;;;5.22;;
76380;SDS011;65202;52.520;10.528;2022-12-24T09:50:51;36.25;;;5.80;;
76380;SDS011;65202;52.520;10.528;2022-12-24T09:56:25;32.63;;;4.97;;
76380;SDS011;65202;52.520;10.528;2022-12-24T09:58:57;39.80;;;5.80;;
76380;SDS011;65202;52.520;10.528;2022-12-24T10:01:31;35.05;;;5.05;;
76380;SDS011;65202;52.520;10.528;2022-12-24T10:04:02;32.72;;;5.25;;
76380;SDS011;65202;52.520;10.528;2022-12-24T10:06:39;38.75;;;5.25;;
76380;SDS011;65202;52.520;10.528;2022-12-24T10:09:23;29.83;;;5.17;;
76380;SDS011;65202;52.520;10.528;2022-12-24T10:12:07;39.03;;;7.93;;
76380;SDS011;65202;52.520;10.528;2022-12-24T10:15:08;37.58;;;8.75;;
76380;SDS011;65202;52.520;10.528;2022-12-24T10:23:44;33.80;;;6.18;;
76380;SDS011;65202;52.520;10.528;2022-12-24T10:29:15;36.97;;;5.80;;
76380;SDS011;65202;52.520;10.528;2022-12-24T10:31:58;44.80;;;6.18;;
76380;SDS011;65202;52.520;10.528;2022-12-24T10:34:44;39.38;;;6.10;;
76380;SDS011;65202;52.520;10.528;2022-12-24T10:37:21;30.85;;;6.10;;
76380;SDS011;65202;52.520;10.528;2022-12-24T10:39:54;42.63;;;5.93;;
76380;SDS011;65202;52.520;10.528;2022-12-24T10:42:26;45.70;;;6.10;;
76380;SDS011;65202;52.520;10.528;2022-12-24T10:45:16;37.30;;;6.63;;
76380;SDS011;65202;52.520;10.528;2022-12-24T10:47:48;41.30;;;5.97;;
76380;SDS011;65202;52.520;10.528;2022-12-24T10:53:11;40.85;;;7.05;;
76380;SDS011;65202;52.520;10.528;2022-12-24T10:55:47;43.90;;;7.47;;
76380;SDS011;65202;52.520;10.528;2022-12-24T10:58:15;43.50;;;7.50;;
76380;SDS011;65202;52.520;10.528;2022-12-24T11:00:48;31.60;;;6.72;;
76380;SDS011;65202;52.520;10.528;2022-12-24T11:03:21;37.70;;;7.43;;
76380;SDS011;65202;52.520;10.528;2022-12-24T11:06:00;38.58;;;7.38;;
76380;SDS011;65202;52.520;10.528;2022-12-24T11:08:37;47.83;;;7.55;;
76380;SDS011;65202;52.520;10.528;2022-12-24T11:11:15;40.47;;;8.13;;
76380;SDS011;65202;52.520;10.528;2022-12-24T11:19:02;44.88;;;8.15;;
76380;SDS011;65202;52.520;10.528;2022-12-24T11:21:41;45.45;;;8.20;;
76380;SDS011;65202;52.520;10.528;2022-12-24T11:26:40;45.80;;;7.60;;
76380;SDS011;65202;52.520;10.528;2022-12-24T11:29:14;38.78;;;7.60;;
76380;SDS011;65202;52.520;10.528;2022-12-24T11:31:45;44.05;;;8.00;;
76380;SDS011;65202;52.520;10.528;2022-12-24T11:34:17;48.05;;;8.57;;
76380;SDS011;65202;52.520;10.528;2022-12-24T11:36:50;51.58;;;8.52;;
76380;SDS011;65202;52.520;10.528;2022-12-24T11:39:22;55.42;;;8.75;;
76380;SDS011;65202;52.520;10.528;2022-12-24T11:41:52;43.03;;;8.57;;
76380;SDS011;65202;52.520;10.528;2022-12-24T11:44:24;45.65;;;8.00;;
76380;SDS011;65202;52.520;10.528;2022-12-24T11:46:57;44.90;;;8.38;;
76380;SDS011;65202;52.520;10.528;2022-12-24T11:49:28;45.25;;;7.95;;
76380;SDS011;65202;52.520;10.528;2022-12-24T11:52:00;42.53;;;8.02;;
76380;SDS011;65202;52.520;10.528;2022-12-24T11:54:58;44.85;;;8.52;;
76380;SDS011;65202;52.520;10.528;2022-12-24T11:57:46;43.17;;;8.00;;
76380;SDS011;65202;52.520;10.528;2022-12-24T12:00:24;47.97;;;8.77;;
76380;SDS011;65202;52.520;10.528;2022-12-24T12:02:53;55.75;;;8.73;;
76380;SDS011;65202;52.520;10.528;2022-12-24T12:05:26;45.00;;;8.45;;
76380;SDS011;65202;52.520;10.528;2022-12-24T12:08:04;44.88;;;8.43;;
76380;SDS011;65202;52.520;10.528;2022-12-24T12:10:39;51.08;;;8.60;;
76380;SDS011;65202;52.520;10.528;2022-12-24T12:13:11;46.60;;;9.27;;
76380;SDS011;65202;52.520;10.528;2022-12-24T12:15:44;55.37;;;9.87;;
76380;SDS011;65202;52.520;10.528;2022-12-24T12:18:32;53.83;;;8.32;;
76380;SDS011;65202;52.520;10.528;2022-12-24T12:21:07;53.90;;;9.70;;
76380;SDS011;65202;52.520;10.528;2022-12-24T12:23:43;54.72;;;9.70;;
76380;SDS011;65202;52.520;10.528;2022-12-24T12:26:24;60.38;;;9.65;;
76380;SDS011;65202;52.520;10.528;2022-12-24T12:28:56;58.90;;;9.40;;
76380;SDS011;65202;52.520;10.528;2022-12-24T12:31:33;45.60;;;8.98;;
76380;SDS011;65202;52.520;10.528;2022-12-24T12:34:11;49.72;;;10.65;;
76380;SDS011;65202;52.520;10.528;2022-12-24T12:37:19;53.42;;;14.80;;
76380;SDS011;65202;52.520;10.528;2022-12-24T12:39:58;59.90;;;12.52;;
76380;SDS011;65202;52.520;10.528;2022-12-24T12:42:33;51.78;;;11.73;;
76380;SDS011;65202;52.520;10.528;2022-12-24T12:48:01;50.30;;;8.68;;
76380;SDS011;65202;52.520;10.528;2022-12-24T12:51:02;45.97;;;8.45;;
76380;SDS011;65202;52.520;10.528;2022-12-24T12:56:57;40.65;;;8.50;;
76380;SDS011;65202;52.520;10.528;2022-12-24T12:59:37;39.03;;;8.82;;
76380;SDS011;65202;52.520;10.528;2022-12-24T13:02:24;43.30;;;8.55;;
76380;SDS011;65202;52.520;10.528;2022-12-24T13:08:37;37.88;;;9.20;;
76380;SDS011;65202;52.520;10.528;2022-12-24T13:14:39;41.53;;;8.15;;
76380;SDS011;65202;52.520;10.528;2022-12-24T13:17:55;35.10;;;7.90;;
76380;SDS011;65202;52.520;10.528;2022-12-24T13:20:39;28.23;;;6.72;;
76380;SDS011;65202;52.520;10.528;2022-12-24T13:23:18;30.20;;;6.80;;
76380;SDS011;65202;52.520;10.528;2022-12-24T13:25:51;36.33;;;7.75;;
76380;SDS011;65202;52.520;10.528;2022-12-24T13:30:51;57.03;;;12.43;;
76380;SDS011;65202;52.520;10.528;2022-12-24T13:36:11;34.25;;;9.38;;
76380;SDS011;65202;52.520;10.528;2022-12-24T13:38:50;32.00;;;8.15;;
76380;SDS011;65202;52.520;10.528;2022-12-24T13:49:55;26.58;;;7.07;;
76380;SDS011;65202;52.520;10.528;2022-12-24T13:52:40;30.13;;;7.75;;
76380;SDS011;65202;52.520;10.528;2022-12-24T13:55:18;36.63;;;8.85;;
76380;SDS011;65202;52.520;10.528;2022-12-24T13:57:55;34.85;;;7.68;;
76380;SDS011;65202;52.520;10.528;2022-12-24T14:00:36;29.02;;;7.13;;
76380;SDS011;65202;52.520;10.528;2022-12-24T14:05:44;27.42;;;6.68;;
76380;SDS011;65202;52.520;10.528;2022-12-24T14:22:01;27.65;;;6.28;;
76380;SDS011;65202;52.520;10.528;2022-12-24T14:24:44;47.03;;;10.50;;
76380;SDS011;65202;52.520;10.528;2022-12-24T14:27:32;35.95;;;8.23;;
76380;SDS011;65202;52.520;10.528;2022-12-24T14:30:16;28.17;;;7.20;;
76380;SDS011;65202;52.520;10.528;2022-12-24T14:32:47;25.35;;;6.68;;
76380;SDS011;65202;52.520;10.528;2022-12-24T14:35:18;28.15;;;6.28;;
76380;SDS011;65202;52.520;10.528;2022-12-24T14:38:00;22.70;;;6.40;;
76380;SDS011;65202;52.520;10.528;2022-12-24T14:40:36;20.00;;;5.90;;
76380;SDS011;65202;52.520;10.528;2022-12-24T14:43:22;18.42;;;5.80;;
76380;SDS011;65202;52.520;10.528;2022-12-24T14:49:27;38.15;;;13.70;;
76380;SDS011;65202;52.520;10.528;2022-12-24T14:55:28;16.45;;;4.65;;
76380;SDS011;65202;52.520;10.528;2022-12-24T14:58:26;18.23;;;5.28;;
76380;SDS011;65202;52.520;10.528;2022-12-24T15:01:00;14.40;;;3.90;;
76380;SDS011;65202;52.520;10.528;2022-12-24T15:03:44;14.00;;;3.70;;
76380;SDS011;65202;52.520;10.528;2022-12-24T15:06:12;14.70;;;3.25;;
76380;SDS011;65202;52.520;10.528;2022-12-24T15:08:43;13.55;;;3.35;;
76380;SDS011;65202;52.520;10.528;2022-12-24T15:11:15;13.25;;;3.55;;
76380;SDS011;65202;52.520;10.528;2022-12-24T15:13:49;12.55;;;3.00;;
76380;SDS011;65202;52.520;10.528;2022-12-24T15:16:22;8.15;;;2.30;;
76380;SDS011;65202;52.520;10.528;2022-12-24T15:19:01;10.05;;;2.67;;
76380;SDS011;65202;52.520;10.528;2022-12-24T15:21:35;5.93;;;2.17;;
76380;SDS011;65202;52.520;10.528;2022-12-24T15:24:22;9.95;;;2.90;;
76380;SDS011;65202;52.520;10.528;2022-12-24T15:27:13;9.23;;;2.50;;
76380;SDS011;65202;52.520;10.528;2022-12-24T15:29:48;8.30;;;2.80;;
76380;SDS011;65202;52.520;10.528;2022-12-24T15:32:19;8.55;;;2.28;;
76380;SDS011;65202;52.520;10.528;2022-12-24T15:34:51;9.82;;;3.13;;
76380;SDS011;65202;52.520;10.528;2022-12-24T15:37:30;10.60;;;3.30;;
76380;SDS011;65202;52.520;10.528;2022-12-24T15:42:45;6.15;;;2.63;;
76380;SDS011;65202;52.520;10.528;2022-12-24T15:45:14;11.52;;;3.50;;
76380;SDS011;65202;52.520;10.528;2022-12-24T15:47:55;10.38;;;3.60;;
76380;SDS011;65202;52.520;10.528;2022-12-24T15:50:36;10.13;;;3.03;;
76380;SDS011;65202;52.520;10.528;2022-12-24T15:53:12;11.88;;;4.38;;
76380;SDS011;65202;52.520;10.528;2022-12-24T15:58:53;12.00;;;5.13;;
76380;SDS011;65202;52.520;10.528;2022-12-24T16:01:38;11.00;;;4.05;;
76380;SDS011;65202;52.520;10.528;2022-12-24T16:04:12;16.80;;;3.60;;
76380;SDS011;65202;52.520;10.528;2022-12-24T16:06:50;21.73;;;7.05;;
76380;SDS011;65202;52.520;10.528;2022-12-24T16:09:53;11.93;;;3.67;;
76380;SDS011;65202;52.520;10.528;2022-12-24T16:14:51;9.75;;;3.22;;
76380;SDS011;65202;52.520;10.528;2022-12-24T16:17:25;14.50;;;4.85;;
76380;SDS011;65202;52.520;10.528;2022-12-24T16:19:59;12.75;;;3.45;;
76380;SDS011;65202;52.520;10.528;2022-12-24T16:22:33;15.25;;;3.78;;
76380;SDS011;65202;52.520;10.528;2022-12-24T16:25:20;14.88;;;4.30;;
76380;SDS011;65202;52.520;10.528;2022-12-24T16:27:52;14.82;;;4.18;;
76380;SDS011;65202;52.520;10.528;2022-12-24T16:30:25;16.08;;;4.32;;
76380;SDS011;65202;52.520;10.528;2022-12-24T16:32:52;19.20;;;4.47;;
76380;SDS011;65202;52.520;10.528;2022-12-24T16:35:24;17.52;;;4.28;;
76380;SDS011;65202;52.520;10.528;2022-12-24T16:37:54;13.73;;;4.40;;
76380;SDS011;65202;52.520;10.528;2022-12-24T16:40:21;15.15;;;4.38;;
76380;SDS011;65202;52.520;10.528;2022-12-24T16:42:55;14.43;;;4.43;;